Terminal Aerodrome Forecast
Issued by NWS Jackson, KY

Home | Current Version | Previous Version | Text Only | Print | Product List | Glossary On
Versions: 1 2 3 4 5 6 7 8 9 10 11 12
000
FTUS43 KJKL 210500
TAFJKL
TAF
KJKL 210539Z 2106/2206 VRB03KT P6SM FEW050 BKN250
     FM211300 22006KT P6SM VCSH BKN035
     FM211500 25008G18KT 6SM -SHRA VCTS SCT025 BKN035CB
     FM212300 29006KT P6SM SCT025 SCT250=

USA.gov is the U.S. government's official web portal to all federal, state and local government web resources and services.